createdAt,value
2023-04-23T00:02:26.931Z,10.51
2023-04-23T00:05:30.484Z,10.47
2023-04-23T00:08:33.120Z,10.42
2023-04-23T00:11:35.378Z,10.38
2023-04-23T00:14:37.537Z,10.34
2023-04-23T00:17:39.612Z,10.34
2023-04-23T00:20:43.587Z,10.34
2023-04-23T00:23:45.717Z,10.29
2023-04-23T00:26:47.629Z,10.42
2023-04-23T00:29:51.400Z,10.48
2023-04-23T00:32:53.379Z,10.50
2023-04-23T00:35:55.674Z,10.52
2023-04-23T00:38:57.799Z,10.54
2023-04-23T00:42:02.204Z,10.52
2023-04-23T00:45:05.994Z,10.54
2023-04-23T00:48:08.965Z,10.48
2023-04-23T00:51:11.861Z,10.45
2023-04-23T00:54:14.408Z,10.42
2023-04-23T00:57:17.063Z,10.40
2023-04-23T01:00:20.529Z,10.37
2023-04-23T01:03:27.564Z,10.37
2023-04-23T01:06:31.912Z,10.30
2023-04-23T01:09:34.266Z,10.24
2023-04-23T01:12:36.543Z,10.15
2023-04-23T01:15:38.559Z,10.03
2023-04-23T01:18:41.223Z,10.01
2023-04-23T01:21:43.374Z,10.02
2023-04-23T01:24:45.863Z,10.05
2023-04-23T01:27:48.529Z,9.99
2023-04-23T01:30:51.447Z,9.98
2023-04-23T01:33:55.504Z,10.06
2023-04-23T01:36:59.159Z,10.16
2023-04-23T01:40:01.204Z,10.16
2023-04-23T01:43:04.116Z,10.15
2023-04-23T01:46:06.323Z,10.18
2023-04-23T01:49:08.854Z,10.14
2023-04-23T01:52:11.476Z,10.07
2023-04-23T01:55:14.302Z,9.97
2023-04-23T01:58:16.258Z,9.90
2023-04-23T02:01:18.502Z,9.86
2023-04-23T02:04:21.477Z,9.83
2023-04-23T02:07:23.550Z,9.75
2023-04-23T02:10:26.188Z,9.65
2023-04-23T02:13:28.150Z,9.59
2023-04-23T02:16:31.256Z,9.61
2023-04-23T02:19:35.168Z,9.55
2023-04-23T02:22:39.330Z,9.43
2023-04-23T02:25:41.353Z,9.40
2023-04-23T02:28:43.415Z,9.34
2023-04-23T02:31:45.439Z,9.27
2023-04-23T02:34:47.364Z,9.19
2023-04-23T02:37:49.367Z,9.13
2023-04-23T02:40:51.450Z,9.13
2023-04-23T02:43:53.911Z,9.03
2023-04-23T02:46:56.456Z,9.04
2023-04-23T02:49:59.326Z,9.01
2023-04-23T02:53:01.458Z,8.95
2023-04-23T02:56:03.546Z,8.91
2023-04-23T02:59:06.626Z,8.85
2023-04-23T03:02:08.819Z,8.78
2023-04-23T03:05:10.861Z,8.79
2023-04-23T03:08:12.802Z,8.75
2023-04-23T03:11:14.717Z,8.73
2023-04-23T03:14:16.691Z,8.67
2023-04-23T03:17:18.687Z,8.63
2023-04-23T03:20:20.742Z,8.58
2023-04-23T03:23:22.837Z,8.58
2023-04-23T03:26:24.749Z,8.55
2023-04-23T03:29:27.385Z,8.55
2023-04-23T03:32:29.709Z,8.47
2023-04-23T03:35:31.677Z,8.47
2023-04-23T03:38:33.622Z,8.46
2023-04-23T03:41:35.690Z,8.45
2023-04-23T03:44:37.626Z,8.37
2023-04-23T03:47:40.512Z,8.28
2023-04-23T03:50:42.470Z,8.15
2023-04-23T03:53:45.710Z,8.14
2023-04-23T03:56:47.652Z,8.05
2023-04-23T03:59:49.661Z,7.99
2023-04-23T04:02:51.906Z,7.93
2023-04-23T04:05:54.194Z,7.95
2023-04-23T04:08:56.369Z,7.99
2023-04-23T04:11:58.253Z,8.01
2023-04-23T04:15:00.408Z,8.02
2023-04-23T04:18:02.466Z,8.03
2023-04-23T04:21:04.605Z,8.03
2023-04-23T04:24:06.729Z,8.03
2023-04-23T04:27:09.190Z,8.03
2023-04-23T04:30:11.610Z,8.07
2023-04-23T04:33:15.172Z,8.16
2023-04-23T04:36:18.313Z,8.23
2023-04-23T04:39:20.848Z,8.33
2023-04-23T04:42:22.828Z,8.47
2023-04-23T04:45:25.883Z,8.48
2023-04-23T04:48:27.952Z,8.55
2023-04-23T04:51:30.476Z,8.61
2023-04-23T04:54:32.452Z,8.70
2023-04-23T04:57:34.368Z,8.80
2023-04-23T05:00:36.630Z,8.88
2023-04-23T05:03:39.428Z,8.98
2023-04-23T05:06:41.608Z,9.07
2023-04-23T05:09:45.091Z,9.12
2023-04-23T05:12:47.764Z,9.15
2023-04-23T05:15:49.739Z,9.23
2023-04-23T05:18:52.234Z,9.31
2023-04-23T05:21:54.330Z,9.42
2023-04-23T05:24:56.421Z,9.51
2023-04-23T05:27:58.405Z,9.67
2023-04-23T05:31:00.852Z,9.85
2023-04-23T05:34:03.059Z,10.12
2023-04-23T05:37:05.988Z,10.72
2023-04-23T05:40:09.271Z,11.36
2023-04-23T05:43:12.762Z,12.05
2023-04-23T05:46:14.722Z,12.72
2023-04-23T05:49:16.719Z,13.19
2023-04-23T05:52:19.266Z,13.55
2023-04-23T05:55:21.857Z,13.67
2023-04-23T05:58:23.844Z,13.75
2023-04-23T06:01:25.834Z,13.85
2023-04-23T06:04:28.117Z,13.87
2023-04-23T06:07:30.287Z,14.19
2023-04-23T06:10:32.372Z,14.34
2023-04-23T06:13:42.849Z,14.37
2023-04-23T06:16:45.660Z,14.79
2023-04-23T06:19:47.575Z,15.05
2023-04-23T06:22:49.561Z,15.20
2023-04-23T06:25:51.527Z,15.47
2023-04-23T06:28:53.803Z,15.79
2023-04-23T06:31:57.004Z,16.12
2023-04-23T06:35:01.993Z,16.73
2023-04-23T06:38:04.337Z,16.89
2023-04-23T06:41:06.823Z,17.17
2023-04-23T06:44:08.803Z,16.92
2023-04-23T06:47:10.891Z,17.31
2023-04-23T06:50:12.939Z,17.17
2023-04-23T06:53:15.756Z,17.17
2023-04-23T06:56:17.719Z,17.19
2023-04-23T06:59:19.915Z,17.28
2023-04-23T07:02:21.874Z,17.76
2023-04-23T07:05:24.060Z,17.92
2023-04-23T07:08:26.337Z,18.23
2023-04-23T07:11:29.737Z,18.52
2023-04-23T07:14:32.508Z,19.22
2023-04-23T07:17:35.119Z,18.96
2023-04-23T07:20:37.724Z,19.79
2023-04-23T07:23:39.697Z,20.10
2023-04-23T07:26:41.573Z,19.83
2023-04-23T07:29:46.973Z,20.38
2023-04-23T07:32:49.109Z,20.57
2023-04-23T07:35:51.190Z,20.88
2023-04-23T07:38:53.549Z,20.48
2023-04-23T07:41:56.938Z,20.76
2023-04-23T07:44:58.964Z,20.53
2023-04-23T07:48:02.523Z,20.79
2023-04-23T07:51:04.720Z,20.72
2023-04-23T07:54:06.829Z,21.89
2023-04-23T07:57:08.877Z,21.58
2023-04-23T08:00:11.502Z,21.87
2023-04-23T08:03:14.492Z,21.51
2023-04-23T08:06:16.756Z,21.90
2023-04-23T08:09:18.949Z,22.44
2023-04-23T08:12:21.504Z,22.05
2023-04-23T08:15:23.578Z,22.50
2023-04-23T08:18:25.631Z,21.81
2023-04-23T08:21:29.024Z,22.19
2023-04-23T08:24:31.015Z,22.73
2023-04-23T08:27:32.938Z,23.16
2023-04-23T08:30:35.631Z,23.35
2023-04-23T08:33:37.668Z,22.62
2023-04-23T08:36:40.163Z,23.12
2023-04-23T08:39:42.411Z,22.79
2023-04-23T08:42:58.287Z,23.30
2023-04-23T08:46:06.260Z,23.38
2023-04-23T08:49:09.231Z,21.85
2023-04-23T08:52:19.299Z,23.33
2023-04-23T08:55:22.831Z,23.27
2023-04-23T08:58:28.077Z,23.92
2023-04-23T09:01:30.879Z,24.04
2023-04-23T09:04:34.185Z,24.46
2023-04-23T09:07:36.758Z,24.45
2023-04-23T09:10:42.315Z,23.60
2023-04-23T09:13:44.314Z,23.69
2023-04-23T09:16:46.466Z,24.26
2023-04-23T09:19:50.494Z,24.05
2023-04-23T09:22:52.822Z,24.74
2023-04-23T09:25:57.207Z,25.29
2023-04-23T09:28:59.221Z,25.35
2023-04-23T09:32:09.880Z,24.89
2023-04-23T09:35:17.055Z,25.24
2023-04-23T09:38:19.956Z,24.91
2023-04-23T09:41:23.193Z,25.11
2023-04-23T09:44:26.615Z,25.32
2023-04-23T09:47:32.504Z,24.82
2023-04-23T09:50:41.028Z,25.31
2023-04-23T09:53:44.223Z,24.33
2023-04-23T09:56:51.320Z,25.08
2023-04-23T10:00:03.369Z,25.78
2023-04-23T10:03:13.714Z,25.71
2023-04-23T10:06:25.741Z,26.27
2023-04-23T10:09:38.003Z,27.87
2023-04-23T10:12:53.594Z,26.64
2023-04-23T10:16:07.084Z,25.94
2023-04-23T10:19:19.636Z,26.25
2023-04-23T10:22:22.797Z,25.71
2023-04-23T10:25:25.756Z,26.49
2023-04-23T10:28:32.922Z,26.36
2023-04-23T10:31:36.985Z,26.24
2023-04-23T10:34:40.925Z,26.05
2023-04-23T10:37:44.607Z,25.17
2023-04-23T10:40:51.106Z,25.51
2023-04-23T10:43:53.900Z,25.92
2023-04-23T10:46:58.471Z,25.94
2023-04-23T10:50:28.450Z,26.60
2023-04-23T10:53:32.197Z,26.59
2023-04-23T10:56:34.386Z,27.27
2023-04-23T10:59:41.504Z,26.64
2023-04-23T11:02:45.061Z,26.61
2023-04-23T11:05:47.108Z,27.54
2023-04-23T11:08:56.675Z,27.48
2023-04-23T11:12:00.257Z,27.92
2023-04-23T11:15:16.430Z,27.23
2023-04-23T11:18:18.558Z,26.70
2023-04-23T11:21:20.725Z,27.12
2023-04-23T11:24:24.006Z,27.21
2023-04-23T11:27:26.158Z,26.72
2023-04-23T11:30:30.067Z,26.36
2023-04-23T11:33:32.205Z,26.18
2023-04-23T11:36:34.739Z,26.37
2023-04-23T11:39:44.203Z,25.96
2023-04-23T11:42:47.862Z,25.86
2023-04-23T11:45:49.803Z,25.17
2023-04-23T11:48:51.887Z,24.69
2023-04-23T11:51:54.101Z,25.18
2023-04-23T11:54:56.359Z,25.98
2023-04-23T11:57:58.405Z,26.43
2023-04-23T12:01:00.862Z,26.00
2023-04-23T12:04:10.587Z,26.71
2023-04-23T12:07:23.392Z,26.16
2023-04-23T12:10:28.521Z,26.50
2023-04-23T12:13:33.811Z,26.21
2023-04-23T12:16:40.032Z,26.25
2023-04-23T12:19:44.937Z,26.12
2023-04-23T12:22:47.311Z,25.73
2023-04-23T12:25:49.633Z,26.30
2023-04-23T12:28:53.008Z,24.51
2023-04-23T12:31:58.802Z,24.93
2023-04-23T12:35:00.886Z,24.87
2023-04-23T12:38:23.869Z,24.94
2023-04-23T12:41:25.853Z,24.50
2023-04-23T12:44:28.396Z,24.39
2023-04-23T12:47:30.420Z,25.22
2023-04-23T12:50:32.501Z,24.56
2023-04-23T12:53:34.645Z,25.66
2023-04-23T12:56:37.820Z,25.64
2023-04-23T12:59:40.271Z,25.66
2023-04-23T13:02:42.517Z,25.85
2023-04-23T13:05:45.217Z,25.82
2023-04-23T13:08:47.386Z,25.88
2023-04-23T13:11:49.980Z,25.90
2023-04-23T13:14:52.146Z,26.00
2023-04-23T13:17:54.180Z,25.91
2023-04-23T13:20:57.617Z,25.74
2023-04-23T13:23:59.559Z,25.95
2023-04-23T13:27:01.951Z,25.89
2023-04-23T13:30:04.473Z,25.16
2023-04-23T13:33:06.513Z,25.38
2023-04-23T13:36:08.923Z,24.90
2023-04-23T13:39:14.170Z,24.99
2023-04-23T13:42:16.221Z,25.29
2023-04-23T13:45:18.339Z,25.00
2023-04-23T13:48:20.408Z,24.73
2023-04-23T13:51:34.017Z,24.61
2023-04-23T13:54:38.328Z,24.67
2023-04-23T13:57:40.494Z,25.07
2023-04-23T14:00:43.222Z,25.10
2023-04-23T14:03:45.542Z,25.05
2023-04-23T14:06:47.523Z,24.68
2023-04-23T14:09:52.837Z,24.09
2023-04-23T14:12:55.901Z,24.26
2023-04-23T14:15:58.131Z,24.35
2023-04-23T14:19:00.768Z,24.22
2023-04-23T14:22:03.746Z,23.92
2023-04-23T14:25:45.405Z,23.64
2023-04-23T14:28:51.693Z,23.51
2023-04-23T14:31:53.983Z,23.47
2023-04-23T14:34:55.885Z,23.44
2023-04-23T14:37:58.025Z,23.19
2023-04-23T14:41:00.592Z,23.03
2023-04-23T14:44:03.206Z,23.33
2023-04-23T14:47:08.192Z,23.23
2023-04-23T14:50:10.819Z,23.01
2023-04-23T14:53:12.909Z,23.05
2023-04-23T14:56:15.171Z,22.92
2023-04-23T14:59:17.792Z,22.89
2023-04-23T15:02:19.778Z,22.71
2023-04-23T15:05:22.289Z,22.66
2023-04-23T15:08:24.461Z,22.77
2023-04-23T15:11:26.592Z,22.62
2023-04-23T15:14:33.188Z,22.43
2023-04-23T15:17:35.232Z,22.41
2023-04-23T15:20:37.382Z,22.35
2023-04-23T15:23:41.449Z,22.27
2023-04-23T15:26:46.061Z,22.20
2023-04-23T15:29:49.415Z,22.27
2023-04-23T15:32:52.263Z,22.27
2023-04-23T15:35:54.211Z,22.13
2023-04-23T15:38:56.297Z,22.01
2023-04-23T15:41:58.361Z,22.09
2023-04-23T15:45:00.462Z,22.33
2023-04-23T15:48:02.577Z,22.09
2023-04-23T15:51:04.891Z,22.14
2023-04-23T15:54:08.834Z,22.03
2023-04-23T15:57:11.331Z,22.24
2023-04-23T16:00:13.946Z,22.26
2023-04-23T16:03:16.209Z,22.21
2023-04-23T16:06:18.550Z,22.19
2023-04-23T16:09:20.774Z,22.11
2023-04-23T16:12:23.099Z,22.07
2023-04-23T16:15:25.876Z,21.95
2023-04-23T16:18:27.808Z,21.88
2023-04-23T16:21:30.455Z,21.75
2023-04-23T16:24:32.549Z,21.76
2023-04-23T16:27:34.562Z,21.59
2023-04-23T16:30:37.065Z,21.52
2023-04-23T16:33:40.916Z,21.50
2023-04-23T16:36:43.020Z,21.42
2023-04-23T16:39:45.463Z,21.32
2023-04-23T16:42:49.110Z,21.19
2023-04-23T16:45:51.614Z,21.17
2023-04-23T16:48:53.641Z,21.08
2023-04-23T16:51:57.500Z,20.87
2023-04-23T16:55:00.171Z,20.88
2023-04-23T16:58:03.276Z,20.79
2023-04-23T17:01:05.945Z,20.59
2023-04-23T17:04:08.431Z,20.50
2023-04-23T17:07:11.044Z,20.42
2023-04-23T17:10:15.492Z,20.29
2023-04-23T17:13:18.478Z,20.21
2023-04-23T17:16:21.407Z,20.17
2023-04-23T17:19:23.569Z,19.99
2023-04-23T17:22:26.261Z,19.92
2023-04-23T17:25:28.703Z,19.90
2023-04-23T17:28:31.945Z,19.82
2023-04-23T17:31:36.109Z,19.67
2023-04-23T17:34:41.077Z,19.61
2023-04-23T17:37:53.020Z,19.55
2023-04-23T17:40:55.934Z,19.46
2023-04-23T17:43:59.780Z,19.40
2023-04-23T17:47:02.533Z,19.32
2023-04-23T17:50:10.347Z,19.23
2023-04-23T17:53:13.536Z,19.19
2023-04-23T17:56:16.748Z,19.12
2023-04-23T17:59:19.154Z,19.08
2023-04-23T18:02:22.075Z,19.00
2023-04-23T18:05:25.119Z,18.92
2023-04-23T18:08:28.386Z,18.87
2023-04-23T18:11:30.713Z,18.80
2023-04-23T18:14:33.415Z,18.78
2023-04-23T18:17:36.063Z,18.67
2023-04-23T18:20:39.701Z,18.63
2023-04-23T18:23:42.469Z,18.57
2023-04-23T18:26:46.584Z,18.46
2023-04-23T18:29:49.069Z,18.49
2023-04-23T18:33:19.575Z,18.42
2023-04-23T18:36:31.808Z,18.40
2023-04-23T18:39:34.332Z,18.33
2023-04-23T18:42:37.746Z,18.36
2023-04-23T18:45:40.275Z,18.30
2023-04-23T18:48:52.481Z,18.30
2023-04-23T18:51:55.737Z,18.27
2023-04-23T18:54:58.413Z,18.25
2023-04-23T18:58:01.194Z,18.15
2023-04-23T19:01:04.139Z,18.17
2023-04-23T19:04:07.562Z,18.11
2023-04-23T19:07:10.524Z,17.99
2023-04-23T19:10:14.368Z,18.00
2023-04-23T19:13:17.314Z,17.99
2023-04-23T19:16:21.078Z,17.95
2023-04-23T19:19:25.444Z,17.95
2023-04-23T19:22:28.019Z,17.94
2023-04-23T19:25:30.689Z,17.85
2023-04-23T19:28:33.361Z,17.78
2023-04-23T19:31:36.509Z,17.70
2023-04-23T19:34:39.045Z,17.61
2023-04-23T19:37:41.255Z,17.58
2023-04-23T19:40:44.561Z,17.57
2023-04-23T19:43:47.264Z,17.61
2023-04-23T19:46:50.189Z,17.51
2023-04-23T19:49:52.801Z,17.52
2023-04-23T19:52:57.819Z,17.53
2023-04-23T19:56:01.527Z,17.53
2023-04-23T19:59:04.535Z,17.52
2023-04-23T20:02:07.341Z,17.50
2023-04-23T20:05:13.405Z,17.51
2023-04-23T20:08:26.031Z,17.47
2023-04-23T20:11:29.083Z,17.48
2023-04-23T20:14:32.000Z,17.47
2023-04-23T20:17:34.788Z,17.48
2023-04-23T20:20:37.605Z,17.44
2023-04-23T20:23:39.532Z,17.49
2023-04-23T20:26:42.857Z,17.42
2023-04-23T20:29:45.416Z,17.38
2023-04-23T20:32:47.956Z,17.33
2023-04-23T20:35:51.048Z,17.34
2023-04-23T20:38:54.791Z,17.31
2023-04-23T20:41:57.927Z,17.23
2023-04-23T20:45:00.636Z,17.18
2023-04-23T20:48:03.730Z,17.06
2023-04-23T20:51:05.824Z,16.95
2023-04-23T20:54:07.955Z,16.87
2023-04-23T20:57:09.938Z,16.83
2023-04-23T21:00:12.583Z,16.81
2023-04-23T21:03:14.847Z,16.79
2023-04-23T21:06:17.493Z,16.79
2023-04-23T21:09:19.656Z,16.70
2023-04-23T21:12:21.896Z,16.64
2023-04-23T21:15:24.368Z,16.60
2023-04-23T21:18:26.836Z,16.60
2023-04-23T21:21:30.121Z,16.61
2023-04-23T21:24:32.003Z,16.57
2023-04-23T21:27:34.210Z,16.55
2023-04-23T21:30:51.991Z,16.46
2023-04-23T21:33:56.893Z,16.33
2023-04-23T21:36:59.023Z,16.24
2023-04-23T21:40:01.032Z,16.21
2023-04-23T21:43:04.168Z,16.19
2023-04-23T21:46:07.240Z,16.17
2023-04-23T21:49:09.163Z,16.14
2023-04-23T21:52:11.446Z,16.09
2023-04-23T21:55:13.822Z,16.03
2023-04-23T21:58:17.954Z,15.99
2023-04-23T22:01:20.435Z,15.99
2023-04-23T22:04:22.736Z,15.96
2023-04-23T22:07:26.906Z,15.97
2023-04-23T22:10:30.987Z,15.99
2023-04-23T22:13:33.608Z,15.99
2023-04-23T22:16:35.619Z,16.06
2023-04-23T22:19:37.716Z,16.12
2023-04-23T22:22:42.233Z,16.17
2023-04-23T22:25:44.896Z,16.28
2023-04-23T22:28:47.004Z,16.28
2023-04-23T22:31:48.966Z,16.25
2023-04-23T22:34:52.874Z,16.24
2023-04-23T22:37:54.936Z,16.22
2023-04-23T22:40:57.041Z,16.28
2023-04-23T22:43:58.969Z,16.36
2023-04-23T22:47:00.941Z,16.47
2023-04-23T22:50:04.033Z,16.48
2023-04-23T22:53:06.914Z,16.50
2023-04-23T22:56:09.061Z,16.49
2023-04-23T22:59:13.522Z,16.49
2023-04-23T23:02:15.791Z,16.48
2023-04-23T23:05:17.897Z,16.43
2023-04-23T23:08:19.873Z,16.37
2023-04-23T23:11:22.314Z,16.31
2023-04-23T23:14:24.732Z,16.19
2023-04-23T23:17:26.699Z,16.10
2023-04-23T23:20:28.744Z,15.95
2023-04-23T23:23:30.973Z,15.95
2023-04-23T23:26:33.054Z,15.83
2023-04-23T23:29:35.075Z,15.80
2023-04-23T23:32:37.370Z,15.75
2023-04-23T23:35:41.101Z,15.69
2023-04-23T23:38:43.848Z,15.66
2023-04-23T23:41:47.157Z,15.64
2023-04-23T23:44:49.242Z,15.62
2023-04-23T23:47:51.369Z,15.58
2023-04-23T23:50:55.175Z,15.58
2023-04-23T23:53:57.224Z,15.58
2023-04-23T23:56:59.948Z,15.64
